createdAt,value
2018-12-21T00:02:27.990Z,1.43
2018-12-21T00:04:57.989Z,1.46
2018-12-21T00:07:28.007Z,1.45
2018-12-21T00:09:58.048Z,1.48
2018-12-21T00:12:28.056Z,1.51
2018-12-21T00:14:58.091Z,1.52
2018-12-21T00:17:34.530Z,1.52
2018-12-21T00:20:01.262Z,1.50
2018-12-21T00:22:31.445Z,1.49
2018-12-21T00:25:01.456Z,1.53
2018-12-21T00:27:31.482Z,1.58
2018-12-21T00:30:01.502Z,1.61
2018-12-21T00:32:36.817Z,1.63
2018-12-21T00:35:12.180Z,1.65
2018-12-21T00:37:47.261Z,1.68
2018-12-21T00:40:22.407Z,1.71
2018-12-21T00:42:56.574Z,1.75
2018-12-21T00:45:30.729Z,1.77
2018-12-21T00:48:00.956Z,1.77
2018-12-21T00:50:30.983Z,1.77
2018-12-21T00:53:01.020Z,1.81
2018-12-21T00:55:31.134Z,1.83
2018-12-21T00:58:01.149Z,1.85
2018-12-21T01:00:31.217Z,1.82
2018-12-21T01:03:01.283Z,1.83
2018-12-21T01:05:31.440Z,1.81
2018-12-21T01:08:01.492Z,1.83
2018-12-21T01:10:31.705Z,1.83
2018-12-21T01:13:01.811Z,1.83
2018-12-21T01:15:31.833Z,1.82
2018-12-21T01:18:01.996Z,1.83
2018-12-21T01:20:32.044Z,1.82
2018-12-21T01:23:02.162Z,1.81
2018-12-21T01:25:32.225Z,1.83
2018-12-21T01:28:02.241Z,1.83
2018-12-21T01:30:32.425Z,1.86
2018-12-21T01:33:02.497Z,1.84
2018-12-21T01:35:32.559Z,1.89
2018-12-21T01:38:02.565Z,1.98
2018-12-21T01:40:32.620Z,1.95
2018-12-21T01:43:02.647Z,1.91
2018-12-21T01:45:32.676Z,1.93
2018-12-21T01:48:02.692Z,1.90
2018-12-21T01:50:32.738Z,1.90
2018-12-21T01:53:02.760Z,1.87
2018-12-21T01:55:32.800Z,1.91
2018-12-21T01:58:02.844Z,1.90
2018-12-21T02:00:32.926Z,1.90
2018-12-21T02:03:02.978Z,1.86
2018-12-21T02:05:32.989Z,1.85
2018-12-21T02:08:03.014Z,1.91
2018-12-21T02:10:33.041Z,1.93
2018-12-21T02:13:03.189Z,1.90
2018-12-21T02:15:33.226Z,1.93
2018-12-21T02:18:03.570Z,1.92
2018-12-21T02:20:33.588Z,1.92
2018-12-21T02:23:03.602Z,1.90
2018-12-21T02:25:33.617Z,1.87
2018-12-21T02:28:03.698Z,1.87
2018-12-21T02:30:33.730Z,1.87
2018-12-21T02:33:03.779Z,1.91
2018-12-21T02:35:33.829Z,1.89
2018-12-21T02:38:03.938Z,1.91
2018-12-21T02:40:33.988Z,1.93
2018-12-21T02:43:04.006Z,1.93
2018-12-21T02:45:34.073Z,1.90
2018-12-21T02:48:04.105Z,1.97
2018-12-21T02:50:34.150Z,1.99
2018-12-21T02:53:04.180Z,2.01
2018-12-21T02:55:34.220Z,2.05
2018-12-21T02:58:04.236Z,2.07
2018-12-21T03:00:34.315Z,2.12
2018-12-21T03:03:04.467Z,2.18
2018-12-21T03:05:34.542Z,2.24
2018-12-21T03:08:04.627Z,2.26
2018-12-21T03:10:35.337Z,2.23
2018-12-21T03:13:05.348Z,2.25
2018-12-21T03:15:35.380Z,2.25
2018-12-21T03:18:05.494Z,2.24
2018-12-21T03:20:35.585Z,2.22
2018-12-21T03:23:05.785Z,2.20
2018-12-21T03:25:35.828Z,2.22
2018-12-21T03:28:06.320Z,2.24
2018-12-21T03:30:36.359Z,2.27
2018-12-21T03:33:06.436Z,2.29
2018-12-21T03:35:36.482Z,2.32
2018-12-21T03:38:06.518Z,2.33
2018-12-21T03:40:36.666Z,2.35
2018-12-21T03:43:06.798Z,2.37
2018-12-21T03:45:37.021Z,2.36
2018-12-21T03:48:07.086Z,2.37
2018-12-21T03:50:37.138Z,2.39
2018-12-21T03:53:07.165Z,2.40
2018-12-21T03:55:37.239Z,2.42
2018-12-21T03:58:07.287Z,2.42
2018-12-21T04:00:38.310Z,2.45
2018-12-21T04:03:08.335Z,2.48
2018-12-21T04:05:38.360Z,2.56
2018-12-21T04:08:08.374Z,2.57
2018-12-21T04:10:38.392Z,2.56
2018-12-21T04:13:08.405Z,2.56
2018-12-21T04:15:39.345Z,2.56
2018-12-21T04:18:09.441Z,2.58
2018-12-21T04:20:39.432Z,2.59
2018-12-21T04:23:09.470Z,2.61
2018-12-21T04:25:39.471Z,2.63
2018-12-21T04:28:09.505Z,2.62
2018-12-21T04:30:39.537Z,2.60
2018-12-21T04:33:09.621Z,2.59
2018-12-21T04:35:39.706Z,2.58
2018-12-21T04:38:09.814Z,2.55
2018-12-21T04:40:40.097Z,2.54
2018-12-21T04:43:10.121Z,2.54
2018-12-21T04:45:40.253Z,2.55
2018-12-21T04:48:10.304Z,2.56
2018-12-21T04:50:40.321Z,2.57
2018-12-21T04:53:10.365Z,2.55
2018-12-21T04:55:40.394Z,2.57
2018-12-21T04:58:10.484Z,2.55
2018-12-21T05:00:40.532Z,2.52
2018-12-21T05:03:10.547Z,2.53
2018-12-21T05:05:40.573Z,2.55
2018-12-21T05:08:10.582Z,2.55
2018-12-21T05:10:40.623Z,2.53
2018-12-21T05:13:10.714Z,2.56
2018-12-21T05:15:40.723Z,2.68
2018-12-21T05:18:10.760Z,2.70
2018-12-21T05:20:40.825Z,2.65
2018-12-21T05:23:10.980Z,2.63
2018-12-21T05:25:41.099Z,2.65
2018-12-21T05:28:11.151Z,2.66
2018-12-21T05:30:41.184Z,2.81
2018-12-21T05:33:11.214Z,2.77
2018-12-21T05:35:41.264Z,2.90
2018-12-21T05:38:11.368Z,2.84
2018-12-21T05:40:41.393Z,2.88
2018-12-21T05:43:11.414Z,3.03
2018-12-21T05:45:41.528Z,3.07
2018-12-21T05:48:11.681Z,3.04
2018-12-21T05:50:41.779Z,3.03
2018-12-21T05:53:11.859Z,3.13
2018-12-21T05:55:41.941Z,3.15
2018-12-21T05:58:12.032Z,3.20
2018-12-21T06:00:42.125Z,3.30
2018-12-21T06:03:12.367Z,3.44
2018-12-21T06:05:42.487Z,3.43
2018-12-21T06:08:12.559Z,3.41
2018-12-21T06:10:42.737Z,3.29
2018-12-21T06:13:12.822Z,3.29
2018-12-21T06:15:43.980Z,3.23
2018-12-21T06:18:14.100Z,3.15
2018-12-21T06:20:44.205Z,3.09
2018-12-21T06:23:14.334Z,3.11
2018-12-21T06:25:44.431Z,3.10
2018-12-21T06:28:14.534Z,3.15
2018-12-21T06:30:44.794Z,3.09
2018-12-21T06:33:14.825Z,3.13
2018-12-21T06:35:44.944Z,3.18
2018-12-21T06:38:14.973Z,3.19
2018-12-21T06:40:45.053Z,3.22
2018-12-21T06:43:15.084Z,3.40
2018-12-21T06:45:45.188Z,3.48
2018-12-21T06:48:15.248Z,3.54
2018-12-21T06:50:45.369Z,3.56
2018-12-21T06:53:18.124Z,3.59
2018-12-21T06:55:47.476Z,3.59
2018-12-21T06:58:17.528Z,3.71
2018-12-21T07:00:47.597Z,3.67
2018-12-21T07:03:17.619Z,3.65
2018-12-21T07:05:47.697Z,3.71
2018-12-21T07:08:17.723Z,3.77
2018-12-21T07:10:47.816Z,3.76
2018-12-21T07:13:17.972Z,3.73
2018-12-21T07:15:48.033Z,3.71
2018-12-21T07:18:18.075Z,3.57
2018-12-21T07:20:48.143Z,3.70
2018-12-21T07:23:26.901Z,3.79
2018-12-21T07:25:50.257Z,3.87
2018-12-21T07:28:20.279Z,3.87
2018-12-21T07:30:50.301Z,3.84
2018-12-21T07:33:20.383Z,3.85
2018-12-21T07:35:50.392Z,3.88
2018-12-21T07:38:20.458Z,3.89
2018-12-21T07:40:50.577Z,3.93
2018-12-21T07:43:20.694Z,3.93
2018-12-21T07:45:50.773Z,3.97
2018-12-21T07:48:20.819Z,4.05
2018-12-21T07:50:51.038Z,3.96
2018-12-21T07:53:21.084Z,4.07
2018-12-21T07:55:51.127Z,4.23
2018-12-21T07:58:21.219Z,4.21
2018-12-21T08:00:51.321Z,4.30
2018-12-21T08:03:21.527Z,4.23
2018-12-21T08:05:51.575Z,4.23
2018-12-21T08:08:21.577Z,4.27
2018-12-21T08:10:51.610Z,4.29
2018-12-21T08:13:21.653Z,4.35
2018-12-21T08:15:51.750Z,4.47
2018-12-21T08:18:22.009Z,4.36
2018-12-21T08:20:52.017Z,4.36
2018-12-21T08:23:22.093Z,4.45
2018-12-21T08:25:52.109Z,4.61
2018-12-21T08:28:22.185Z,4.53
2018-12-21T08:30:52.210Z,4.54
2018-12-21T08:33:22.316Z,4.36
2018-12-21T08:35:52.403Z,4.51
2018-12-21T08:38:22.550Z,4.52
2018-12-21T08:40:52.573Z,4.71
2018-12-21T08:43:22.749Z,4.60
2018-12-21T08:45:52.777Z,4.33
2018-12-21T08:48:22.855Z,4.33
2018-12-21T08:50:52.905Z,4.34
2018-12-21T08:53:23.073Z,4.30
2018-12-21T08:55:53.134Z,4.26
2018-12-21T08:58:23.206Z,4.28
2018-12-21T09:00:53.280Z,4.27
2018-12-21T09:03:23.341Z,4.21
2018-12-21T09:05:53.358Z,4.20
2018-12-21T09:08:23.385Z,4.27
2018-12-21T09:10:53.423Z,4.37
2018-12-21T09:13:23.587Z,4.42
2018-12-21T09:15:53.636Z,4.46
2018-12-21T09:18:23.741Z,4.41
2018-12-21T09:20:53.770Z,4.40
2018-12-21T09:23:23.855Z,4.41
2018-12-21T09:25:53.870Z,4.42
2018-12-21T09:28:23.983Z,4.57
2018-12-21T09:30:54.016Z,4.53
2018-12-21T09:33:24.149Z,4.50
2018-12-21T09:35:54.225Z,4.44
2018-12-21T09:38:24.395Z,4.42
2018-12-21T09:40:54.590Z,4.42
2018-12-21T09:43:24.641Z,4.50
2018-12-21T09:45:54.718Z,4.41
2018-12-21T09:48:24.740Z,4.42
2018-12-21T09:50:54.907Z,4.62
2018-12-21T09:53:24.944Z,4.60
2018-12-21T09:55:55.053Z,4.64
2018-12-21T09:58:25.081Z,4.66
2018-12-21T10:00:56.168Z,4.63
2018-12-21T10:03:26.186Z,4.65
2018-12-21T10:05:56.199Z,4.68
2018-12-21T10:08:26.265Z,4.78
2018-12-21T10:10:56.331Z,4.80
2018-12-21T10:13:26.385Z,4.87
2018-12-21T10:15:56.493Z,4.95
2018-12-21T10:18:26.586Z,4.84
2018-12-21T10:20:56.585Z,4.83
2018-12-21T10:23:26.621Z,4.90
2018-12-21T10:25:56.759Z,4.84
2018-12-21T10:28:26.786Z,4.91
2018-12-21T10:30:56.991Z,4.96
2018-12-21T10:33:27.206Z,5.08
2018-12-21T10:35:57.262Z,5.27
2018-12-21T10:38:27.393Z,5.41
2018-12-21T10:40:57.420Z,5.55
2018-12-21T10:43:33.269Z,5.69
2018-12-21T10:46:03.313Z,5.66
2018-12-21T10:48:37.350Z,5.57
2018-12-21T10:51:05.474Z,5.77
2018-12-21T10:53:35.567Z,5.86
2018-12-21T10:56:05.618Z,5.85
2018-12-21T10:58:35.652Z,5.81
2018-12-21T11:01:05.706Z,5.76
2018-12-21T11:03:35.715Z,5.82
2018-12-21T11:06:05.801Z,5.96
2018-12-21T11:08:35.827Z,5.97
2018-12-21T11:11:05.970Z,6.04
2018-12-21T11:13:35.985Z,6.01
2018-12-21T11:16:06.101Z,5.87
2018-12-21T11:18:36.168Z,5.95
2018-12-21T11:21:06.429Z,5.77
2018-12-21T11:23:37.586Z,5.87
2018-12-21T11:26:07.673Z,5.80
2018-12-21T11:28:37.729Z,5.76
2018-12-21T11:31:07.746Z,5.94
2018-12-21T11:33:37.898Z,6.04
2018-12-21T11:36:09.568Z,5.81
2018-12-21T11:38:39.642Z,5.96
2018-12-21T11:41:09.690Z,6.03
2018-12-21T11:43:40.312Z,6.11
2018-12-21T11:46:10.370Z,5.81
2018-12-21T11:48:41.390Z,5.98
2018-12-21T11:51:11.442Z,5.94
2018-12-21T11:53:43.201Z,5.96
2018-12-21T11:56:13.295Z,6.04
2018-12-21T11:58:43.342Z,6.15
2018-12-21T12:01:13.377Z,6.15
2018-12-21T12:03:43.430Z,6.20
2018-12-21T12:06:13.517Z,6.03
2018-12-21T12:08:43.539Z,6.09
2018-12-21T12:11:13.563Z,6.02
2018-12-21T12:13:43.599Z,5.88
2018-12-21T12:16:13.739Z,5.90
2018-12-21T12:18:43.756Z,5.84
2018-12-21T12:21:13.853Z,5.75
2018-12-21T12:23:43.865Z,5.64
2018-12-21T12:26:13.951Z,5.62
2018-12-21T12:28:44.026Z,5.62
2018-12-21T12:31:14.116Z,5.74
2018-12-21T12:33:44.162Z,5.91
2018-12-21T12:36:14.243Z,5.93
2018-12-21T12:38:44.256Z,5.99
2018-12-21T12:41:14.315Z,6.02
2018-12-21T12:43:44.421Z,6.28
2018-12-21T12:46:14.468Z,6.70
2018-12-21T12:48:44.505Z,6.80
2018-12-21T12:51:14.548Z,6.82
2018-12-21T12:53:44.649Z,6.81
2018-12-21T12:56:14.806Z,6.59
2018-12-21T12:58:44.961Z,6.49
2018-12-21T13:01:15.014Z,6.30
2018-12-21T13:03:45.144Z,6.22
2018-12-21T13:06:15.175Z,6.11
2018-12-21T13:08:52.329Z,6.02
2018-12-21T13:11:22.393Z,5.90
2018-12-21T13:13:52.490Z,5.87
2018-12-21T13:16:22.541Z,5.78
2018-12-21T13:18:52.613Z,5.77
2018-12-21T13:21:22.653Z,5.75
2018-12-21T13:23:52.813Z,5.68
2018-12-21T13:26:22.872Z,5.74
2018-12-21T13:28:52.915Z,5.64
2018-12-21T13:31:23.029Z,5.64
2018-12-21T13:33:53.079Z,5.60
2018-12-21T13:36:23.187Z,5.57
2018-12-21T13:38:53.237Z,5.51
2018-12-21T13:41:23.340Z,5.49
2018-12-21T13:43:53.411Z,5.51
2018-12-21T13:46:23.473Z,5.54
2018-12-21T13:48:53.523Z,5.54
2018-12-21T13:51:23.540Z,5.55
2018-12-21T13:53:53.554Z,5.52
2018-12-21T13:56:24.881Z,5.50
2018-12-21T13:58:54.917Z,5.44
2018-12-21T14:01:24.954Z,5.36
2018-12-21T14:03:55.014Z,5.39
2018-12-21T14:06:25.628Z,5.41
2018-12-21T14:08:55.681Z,5.45
2018-12-21T14:11:25.740Z,5.38
2018-12-21T14:13:55.748Z,5.32
2018-12-21T14:16:25.812Z,5.31
2018-12-21T14:18:55.823Z,5.34
2018-12-21T14:21:25.875Z,5.39
2018-12-21T14:23:56.063Z,5.38
2018-12-21T14:26:26.101Z,5.33
2018-12-21T14:28:56.135Z,5.33
2018-12-21T14:31:26.250Z,5.35
2018-12-21T14:33:56.281Z,5.32
2018-12-21T14:36:26.314Z,5.28
2018-12-21T14:39:02.555Z,5.32
2018-12-21T14:41:35.829Z,5.36
2018-12-21T14:44:10.389Z,5.31
2018-12-21T14:46:40.764Z,5.28
2018-12-21T14:49:10.848Z,5.29
2018-12-21T14:51:41.947Z,5.30
2018-12-21T14:54:14.451Z,5.25
2018-12-21T14:56:44.686Z,5.21
2018-12-21T14:59:23.112Z,5.22
2018-12-21T15:01:53.337Z,5.20
2018-12-21T15:04:23.371Z,5.17
2018-12-21T15:06:53.457Z,5.17
2018-12-21T15:09:23.549Z,5.18
2018-12-21T15:11:53.613Z,5.13
2018-12-21T15:14:23.651Z,5.08
2018-12-21T15:16:53.673Z,5.03
2018-12-21T15:19:23.719Z,5.06
2018-12-21T15:21:53.801Z,4.95
2018-12-21T15:24:23.861Z,4.95
2018-12-21T15:26:53.910Z,4.92
2018-12-21T15:29:23.954Z,4.85
2018-12-21T15:31:53.987Z,4.87
2018-12-21T15:34:24.000Z,4.80
2018-12-21T15:36:54.284Z,4.80
2018-12-21T15:39:24.412Z,4.85
2018-12-21T15:41:54.486Z,4.80
2018-12-21T15:44:24.518Z,4.81
2018-12-21T15:46:54.548Z,4.83
2018-12-21T15:49:24.551Z,4.85
2018-12-21T15:51:54.666Z,4.81
2018-12-21T15:54:24.778Z,4.76
2018-12-21T15:56:54.860Z,4.66
2018-12-21T15:59:25.040Z,4.66
2018-12-21T16:01:55.056Z,4.72
2018-12-21T16:04:25.060Z,4.70
2018-12-21T16:06:55.126Z,4.67
2018-12-21T16:09:25.241Z,4.67
2018-12-21T16:11:55.232Z,4.65
2018-12-21T16:14:34.037Z,4.64
2018-12-21T16:16:57.399Z,4.54
2018-12-21T16:19:27.400Z,4.56
2018-12-21T16:21:57.424Z,4.60
2018-12-21T16:24:27.433Z,4.59
2018-12-21T16:26:57.499Z,4.54
2018-12-21T16:29:27.513Z,4.44
2018-12-21T16:31:57.594Z,4.46
2018-12-21T16:34:27.600Z,4.51
2018-12-21T16:36:57.637Z,4.50
2018-12-21T16:39:27.966Z,4.47
2018-12-21T16:41:58.017Z,4.47
2018-12-21T16:44:28.079Z,4.48
2018-12-21T16:46:58.172Z,4.43
2018-12-21T16:49:28.202Z,4.49
2018-12-21T16:51:58.434Z,4.43
2018-12-21T16:54:28.415Z,4.43
2018-12-21T16:56:58.461Z,4.43
2018-12-21T16:59:28.470Z,4.41
2018-12-21T17:01:58.518Z,4.41
2018-12-21T17:04:28.589Z,4.38
2018-12-21T17:06:58.615Z,4.42
2018-12-21T17:09:28.645Z,4.39
2018-12-21T17:11:58.713Z,4.42
2018-12-21T17:14:28.829Z,4.42
2018-12-21T17:16:58.876Z,4.38
2018-12-21T17:19:28.895Z,4.37
2018-12-21T17:21:58.974Z,4.39
2018-12-21T17:24:28.990Z,4.36
2018-12-21T17:26:59.073Z,4.34
2018-12-21T17:29:29.133Z,4.31
2018-12-21T17:31:59.156Z,4.35
2018-12-21T17:34:29.272Z,4.36
2018-12-21T17:36:59.399Z,4.30
2018-12-21T17:39:29.432Z,4.22
2018-12-21T17:41:59.530Z,4.26
2018-12-21T17:44:29.734Z,4.31
2018-12-21T17:46:59.784Z,4.26
2018-12-21T17:49:29.911Z,4.32
2018-12-21T17:52:01.470Z,4.36
2018-12-21T17:54:31.993Z,4.38
2018-12-21T17:57:03.089Z,4.38
2018-12-21T17:59:33.076Z,4.34
2018-12-21T18:02:03.136Z,4.28
2018-12-21T18:04:33.219Z,4.30
2018-12-21T18:07:03.309Z,4.29
2018-12-21T18:09:35.538Z,4.28
2018-12-21T18:12:06.236Z,4.28
2018-12-21T18:14:36.301Z,4.24
2018-12-21T18:17:06.852Z,4.27
2018-12-21T18:19:37.023Z,4.24
2018-12-21T18:22:14.290Z,4.25
2018-12-21T18:24:45.293Z,4.25
2018-12-21T18:27:16.886Z,4.52
2018-12-21T18:29:47.058Z,4.31
2018-12-21T18:32:50.411Z,4.30
2018-12-21T18:35:20.759Z,4.27
2018-12-21T18:37:57.196Z,4.31
2018-12-21T18:40:27.910Z,4.31
2018-12-21T18:42:58.998Z,4.29
2018-12-21T18:45:29.104Z,4.32
2018-12-21T18:47:59.228Z,4.36
2018-12-21T18:50:30.299Z,4.36
2018-12-21T18:53:00.403Z,4.37
2018-12-21T18:55:30.409Z,4.34
2018-12-21T18:58:00.437Z,4.36
2018-12-21T19:00:30.512Z,4.35
2018-12-21T19:03:00.561Z,4.33
2018-12-21T19:05:30.598Z,4.35
2018-12-21T19:08:00.638Z,4.44
2018-12-21T19:10:30.757Z,4.40
2018-12-21T19:13:00.789Z,4.38
2018-12-21T19:15:30.817Z,4.41
2018-12-21T19:18:00.838Z,4.34
2018-12-21T19:20:30.871Z,4.32
2018-12-21T19:23:00.909Z,4.27
2018-12-21T19:25:30.917Z,4.20
2018-12-21T19:28:00.952Z,4.21
2018-12-21T19:30:31.052Z,4.23
2018-12-21T19:33:01.081Z,4.25
2018-12-21T19:35:31.482Z,4.25
2018-12-21T19:38:01.637Z,4.26
2018-12-21T19:40:31.717Z,4.26
2018-12-21T19:43:01.733Z,4.29
2018-12-21T19:45:31.908Z,4.23
2018-12-21T19:48:01.938Z,4.16
2018-12-21T19:50:32.124Z,4.20
2018-12-21T19:53:02.655Z,4.17
2018-12-21T19:55:46.532Z,4.19
2018-12-21T19:58:16.600Z,4.22
2018-12-21T20:00:46.600Z,4.23
2018-12-21T20:03:16.676Z,4.23
2018-12-21T20:05:46.745Z,4.27
2018-12-21T20:08:16.782Z,4.26
2018-12-21T20:10:46.806Z,4.24
2018-12-21T20:13:16.839Z,4.28
2018-12-21T20:15:46.934Z,4.32
2018-12-21T20:18:18.295Z,4.32
2018-12-21T20:20:48.344Z,4.37
2018-12-21T20:23:18.456Z,4.34
2018-12-21T20:25:48.475Z,4.32
2018-12-21T20:28:18.607Z,4.38
2018-12-21T20:30:48.713Z,4.39
2018-12-21T20:33:18.778Z,4.42
2018-12-21T20:35:48.846Z,4.48
2018-12-21T20:38:21.538Z,4.49
2018-12-21T20:40:51.127Z,4.50
2018-12-21T20:43:21.154Z,4.54
2018-12-21T20:45:51.196Z,4.58
2018-12-21T20:48:21.278Z,4.60
2018-12-21T20:50:51.293Z,4.65
2018-12-21T20:53:21.372Z,4.64
2018-12-21T20:55:51.403Z,4.65
2018-12-21T20:58:57.091Z,4.68
2018-12-21T21:01:27.168Z,4.66
2018-12-21T21:03:57.726Z,4.72
2018-12-21T21:06:27.921Z,4.78
2018-12-21T21:08:57.940Z,4.76
2018-12-21T21:11:31.725Z,4.73
2018-12-21T21:14:01.822Z,4.79
2018-12-21T21:16:40.878Z,4.80
2018-12-21T21:19:11.683Z,4.86
2018-12-21T21:21:42.329Z,4.94
2018-12-21T21:24:13.940Z,4.94
2018-12-21T21:26:44.091Z,4.97
2018-12-21T21:29:15.244Z,4.99
2018-12-21T21:31:47.245Z,5.05
2018-12-21T21:34:18.329Z,5.13
2018-12-21T21:36:48.578Z,5.14
2018-12-21T21:39:18.627Z,5.16
2018-12-21T21:41:49.795Z,5.12
2018-12-21T21:44:19.990Z,5.14
2018-12-21T21:46:50.061Z,5.18
2018-12-21T21:49:20.109Z,5.20
2018-12-21T21:51:50.180Z,5.23
2018-12-21T21:54:20.263Z,5.25
2018-12-21T21:56:50.313Z,5.29
2018-12-21T21:59:20.401Z,5.41
2018-12-21T22:01:50.426Z,5.52
2018-12-21T22:04:20.520Z,5.56
2018-12-21T22:06:50.557Z,5.56
2018-12-21T22:09:20.630Z,5.59
2018-12-21T22:11:50.660Z,5.63
2018-12-21T22:14:20.719Z,5.64
2018-12-21T22:16:50.780Z,5.69
2018-12-21T22:19:20.888Z,5.71
2018-12-21T22:21:51.125Z,5.76
2018-12-21T22:24:21.295Z,5.81
2018-12-21T22:26:51.396Z,5.78
2018-12-21T22:29:21.441Z,5.82
2018-12-21T22:31:51.461Z,5.85
2018-12-21T22:34:21.506Z,5.83
2018-12-21T22:36:51.572Z,5.86
2018-12-21T22:39:21.593Z,5.96
2018-12-21T22:41:51.609Z,5.95
2018-12-21T22:44:21.652Z,5.94
2018-12-21T22:46:51.657Z,5.93
2018-12-21T22:49:21.684Z,5.89
2018-12-21T22:51:51.701Z,5.84
2018-12-21T22:54:21.769Z,5.87
2018-12-21T22:56:51.780Z,5.85
2018-12-21T22:59:21.924Z,5.99
2018-12-21T23:01:52.674Z,5.99
2018-12-21T23:04:23.398Z,5.96
2018-12-21T23:06:53.434Z,5.92
2018-12-21T23:09:23.497Z,5.93
2018-12-21T23:11:53.566Z,5.92
2018-12-21T23:14:23.585Z,5.97
2018-12-21T23:16:53.601Z,6.02
2018-12-21T23:19:30.060Z,6.16
2018-12-21T23:22:00.077Z,6.34
2018-12-21T23:24:30.096Z,6.43
2018-12-21T23:27:00.162Z,6.55
2018-12-21T23:29:30.150Z,6.66
2018-12-21T23:32:00.222Z,6.75
2018-12-21T23:34:30.253Z,6.95
2018-12-21T23:37:00.269Z,7.04
2018-12-21T23:39:30.281Z,7.05
2018-12-21T23:42:00.303Z,7.20
2018-12-21T23:44:30.301Z,7.24
2018-12-21T23:47:00.456Z,7.28
2018-12-21T23:49:30.558Z,7.33
2018-12-21T23:52:00.556Z,7.43
2018-12-21T23:54:30.565Z,7.49
2018-12-21T23:57:00.569Z,7.66
2018-12-21T23:59:30.604Z,7.70
